Time;durP1;ratioP1;P1;durP2;ratioP2;P2;SDS_P1;SDS_P2;PMS_P1;PMS_P2;Temp;Humidity;BMP_temperature;BMP_pressure;BME280_temperature;BME280_humidity;BME280_pressure;Samples;Min_cycle;Max_cycle;Signal;HPM_P1;HPM_P2
2023/09/03 00:00:19;;;;;;;67.60;32.20;;;;;;;-147.95;100.00;58458.38;5092339;28;20135;-87
2023/09/03 00:02:45;;;;;;;64.95;32.72;;;;;;;-147.95;100.00;58458.38;5084585;28;20558;-87
2023/09/03 00:05:11;;;;;;;72.45;32.85;;;;;;;-147.95;100.00;58458.38;5085858;28;20039;-88
2023/09/03 00:07:36;;;;;;;69.78;33.80;;;;;;;-147.95;100.00;58458.38;5079087;28;20052;-87
2023/09/03 00:10:02;;;;;;;69.18;33.35;;;;;;;-147.95;100.00;58458.38;5064128;28;20101;-87
2023/09/03 00:12:28;;;;;;;67.53;34.17;;;;;;;-147.95;100.00;58458.38;5081423;28;20475;-87
2023/09/03 00:14:54;;;;;;;71.22;34.30;;;;;;;-147.95;100.00;58458.38;5074961;28;20040;-86
2023/09/03 00:17:20;;;;;;;74.97;34.88;;;;;;;-147.95;100.00;58458.38;5091413;28;20142;-87
2023/09/03 00:19:45;;;;;;;70.95;34.95;;;;;;;-147.95;100.00;58458.38;5073502;28;20040;-87
2023/09/03 00:22:10;;;;;;;79.53;35.30;;;;;;;-147.95;100.00;58458.38;5088813;28;20035;-87
2023/09/03 00:24:36;;;;;;;64.10;34.05;;;;;;;-147.95;100.00;58458.38;5066661;28;20051;-87
2023/09/03 00:27:01;;;;;;;66.85;34.75;;;;;;;-147.95;100.00;58458.38;5064644;28;20039;-86
2023/09/03 00:29:27;;;;;;;66.13;34.38;;;;;;;-147.95;100.00;58458.38;5088995;28;20398;-86
2023/09/03 00:31:52;;;;;;;75.90;35.70;;;;;;;-147.95;100.00;58458.38;5068986;28;20482;-86
2023/09/03 00:34:19;;;;;;;70.20;34.33;;;;;;;-147.95;100.00;58458.38;5087298;28;20043;-86
2023/09/03 00:36:46;;;;;;;74.25;36.30;;;;;;;-147.95;100.00;58458.38;5064658;28;20035;-86
2023/09/03 00:39:12;;;;;;;75.03;35.75;;;;;;;-147.95;100.00;58458.38;5056599;28;20063;-87
2023/09/03 00:41:37;;;;;;;79.18;36.95;;;;;;;-147.95;100.00;58458.38;5091188;28;20491;-86
2023/09/03 00:44:03;;;;;;;75.40;36.28;;;;;;;-147.95;100.00;58458.38;5091637;28;20028;-87
2023/09/03 00:46:30;;;;;;;76.07;36.40;;;;;;;-147.95;100.00;58458.38;5074449;28;20524;-86
2023/09/03 00:48:57;;;;;;;75.10;36.97;;;;;;;-147.95;100.00;58458.38;5087015;28;20024;-86
2023/09/03 00:51:23;;;;;;;70.07;36.00;;;;;;;-147.95;100.00;58458.38;5076857;28;20020;-87
2023/09/03 00:53:53;;;;;;;75.30;35.97;;;;;;;-147.95;100.00;58458.38;5083226;28;20050;-87
2023/09/03 00:56:19;;;;;;;75.22;35.53;;;;;;;-147.95;100.00;58458.38;5085836;28;20036;-86
2023/09/03 00:58:45;;;;;;;66.80;34.17;;;;;;;-147.95;100.00;58458.38;5054620;28;20502;-87
2023/09/03 01:01:11;;;;;;;68.10;34.35;;;;;;;-147.95;100.00;58458.38;5070133;28;20127;-86
2023/09/03 01:03:36;;;;;;;73.22;35.80;;;;;;;-147.95;100.00;58458.38;5070131;28;20060;-87
2023/09/03 01:06:02;;;;;;;70.88;36.45;;;;;;;-147.95;100.00;58458.38;5072311;28;20032;-87
2023/09/03 01:08:28;;;;;;;71.18;36.25;;;;;;;-147.95;100.00;58458.38;5090041;28;20119;-87
2023/09/03 01:11:14;;;;;;;68.60;35.85;;;;;;;-147.95;100.00;58458.38;5069639;28;20044;-82
2023/09/03 01:14:09;;;;;;;66.95;34.17;;;;;;;-147.95;100.00;58458.38;5082354;28;20112;-82
2023/09/03 01:16:42;;;;;;;63.55;35.17;;;;;;;-147.95;100.00;58458.38;5067220;28;20040;-81
2023/09/03 01:19:24;;;;;;;63.20;32.92;;;;;;;-147.95;100.00;58458.38;5081992;28;20013;-82
2023/09/03 01:22:05;;;;;;;68.55;33.33;;;;;;;-147.95;100.00;58458.38;5084381;28;20052;-81
2023/09/03 01:24:40;;;;;;;66.40;34.75;;;;;;;-147.95;100.00;58458.38;5087324;28;20073;-82
2023/09/03 01:27:24;;;;;;;61.47;33.55;;;;;;;-147.95;100.00;58458.38;5081796;28;20111;-82
2023/09/03 01:29:51;;;;;;;64.78;33.63;;;;;;;-147.95;100.00;58458.38;5082856;28;20103;-82
2023/09/03 01:32:18;;;;;;;62.60;32.92;;;;;;;-147.95;100.00;58458.38;5082578;28;20031;-81
2023/09/03 01:34:44;;;;;;;70.60;34.05;;;;;;;-147.95;100.00;58458.38;5080575;28;20494;-81
2023/09/03 01:37:12;;;;;;;63.35;33.10;;;;;;;-147.95;100.00;58458.38;5084050;28;20071;-82
2023/09/03 01:39:39;;;;;;;62.15;31.17;;;;;;;-147.95;100.00;58458.38;5068690;28;20024;-82
2023/09/03 01:42:04;;;;;;;63.72;31.38;;;;;;;-147.95;100.00;58458.38;5086974;28;20409;-81
2023/09/03 01:44:30;;;;;;;61.33;33.83;;;;;;;-147.95;100.00;58458.38;5085364;28;20141;-82
2023/09/03 01:47:48;;;;;;;59.42;33.83;;;;;;;-147.95;100.00;58458.38;5082549;28;20505;-81
2023/09/03 01:50:50;;;;;;;57.60;30.48;;;;;;;-147.95;100.00;58458.38;5012688;28;20119;-82
2023/09/03 01:53:29;;;;;;;57.83;32.30;;;;;;;-147.95;100.00;58458.38;5045671;28;20051;-81
2023/09/03 01:55:59;;;;;;;65.57;33.03;;;;;;;-147.95;100.00;58458.38;5083239;28;20028;-81
2023/09/03 01:58:27;;;;;;;61.97;32.25;;;;;;;-147.95;100.00;58458.38;5082498;28;20029;-82
2023/09/03 02:00:55;;;;;;;58.58;32.58;;;;;;;-147.95;100.00;58458.38;5087887;28;20035;-82
2023/09/03 02:03:23;;;;;;;54.42;30.88;;;;;;;-147.95;100.00;58458.38;5084504;28;20020;-82
2023/09/03 02:05:49;;;;;;;58.38;31.05;;;;;;;-147.95;100.00;58458.38;5078643;28;20027;-82
2023/09/03 02:08:15;;;;;;;62.55;31.60;;;;;;;-147.95;100.00;58458.38;5068153;28;20040;-82
2023/09/03 02:10:40;;;;;;;66.28;32.88;;;;;;;-147.95;100.00;58458.38;5070104;28;20052;-81
2023/09/03 02:13:06;;;;;;;56.22;31.85;;;;;;;-147.95;100.00;58458.38;5048896;28;20037;-81
2023/09/03 02:15:31;;;;;;;64.97;31.88;;;;;;;-147.95;100.00;58458.38;5069788;28;20032;-82
2023/09/03 02:17:57;;;;;;;63.85;33.70;;;;;;;-147.95;100.00;58458.38;5084198;28;20030;-82
2023/09/03 02:20:22;;;;;;;61.22;32.63;;;;;;;-147.95;100.00;58458.38;5075598;28;20046;-87
2023/09/03 02:22:47;;;;;;;62.25;33.03;;;;;;;-147.95;100.00;58458.38;5057548;28;20043;-87
2023/09/03 02:25:13;;;;;;;60.67;32.60;;;;;;;-147.95;100.00;58458.38;5070318;28;20035;-86
2023/09/03 02:27:38;;;;;;;61.42;33.03;;;;;;;-147.95;100.00;58458.38;5073015;28;20032;-87
2023/09/03 02:30:04;;;;;;;66.32;32.20;;;;;;;-147.95;100.00;58458.38;5058646;28;20039;-87
2023/09/03 02:32:30;;;;;;;63.45;31.95;;;;;;;-147.95;100.00;58458.38;5085269;28;20061;-87
2023/09/03 02:34:55;;;;;;;60.15;32.10;;;;;;;-147.95;100.00;58458.38;5082280;28;20511;-87
2023/09/03 02:37:20;;;;;;;58.55;32.72;;;;;;;-147.95;100.00;58458.38;5054899;28;20089;-88
2023/09/03 02:39:47;;;;;;;61.78;32.85;;;;;;;-147.95;100.00;58458.38;5086160;28;20546;-87
2023/09/03 02:42:13;;;;;;;56.25;31.40;;;;;;;-147.95;100.00;58458.38;5090483;28;20127;-87
2023/09/03 02:44:38;;;;;;;63.35;32.83;;;;;;;-147.95;100.00;58458.38;5086968;28;20123;-87
2023/09/03 02:47:04;;;;;;;68.68;33.30;;;;;;;-147.95;100.00;58458.38;5076164;28;20490;-87
2023/09/03 02:49:29;;;;;;;57.58;32.13;;;;;;;-147.95;100.00;58458.38;5089885;28;20050;-87
2023/09/03 02:51:55;;;;;;;61.05;32.85;;;;;;;-147.95;100.00;58458.38;5076678;28;20035;-87
2023/09/03 02:54:21;;;;;;;65.93;32.55;;;;;;;-147.95;100.00;58458.38;5092633;28;20031;-88
2023/09/03 02:56:47;;;;;;;59.10;33.00;;;;;;;-147.95;100.00;58458.38;5068467;28;20020;-88
2023/09/03 02:59:13;;;;;;;65.60;33.30;;;;;;;-147.95;100.00;58458.38;5076720;28;20055;-87
2023/09/03 03:01:38;;;;;;;60.65;33.28;;;;;;;-147.95;100.00;58458.38;5077034;28;20486;-88
2023/09/03 03:04:04;;;;;;;63.40;33.08;;;;;;;-147.95;100.00;58458.38;5059277;28;20055;-87
2023/09/03 03:06:29;;;;;;;64.18;32.33;;;;;;;-147.95;100.00;58458.38;5071257;28;20040;-87
2023/09/03 03:08:55;;;;;;;61.47;33.70;;;;;;;-147.95;100.00;58458.38;5072079;28;20123;-87
2023/09/03 03:11:23;;;;;;;62.20;34.00;;;;;;;-147.95;100.00;58458.38;5075981;28;20654;-87
2023/09/03 03:13:51;;;;;;;65.93;33.00;;;;;;;-147.95;100.00;58458.38;5075785;28;20131;-88
2023/09/03 03:16:17;;;;;;;59.85;32.92;;;;;;;-147.95;100.00;58458.38;5088635;28;20031;-87
2023/09/03 03:18:45;;;;;;;64.57;31.20;;;;;;;-147.95;100.00;58458.38;5073405;28;20032;-88
2023/09/03 03:21:16;;;;;;;65.13;35.75;;;;;;;-147.95;100.00;58458.38;5074164;28;20131;-87
2023/09/03 03:23:46;;;;;;;65.20;34.65;;;;;;;-147.95;100.00;58458.38;5087909;28;20065;-87
2023/09/03 03:26:11;;;;;;;58.30;32.38;;;;;;;-147.95;100.00;58458.38;5086014;28;20012;-87
2023/09/03 03:28:36;;;;;;;63.83;31.88;;;;;;;-147.95;100.00;58458.38;5088295;28;20413;-88
2023/09/03 03:31:10;;;;;;;68.18;32.85;;;;;;;-147.95;100.00;58458.38;5073144;28;20032;-88
2023/09/03 03:33:37;;;;;;;66.90;33.40;;;;;;;-147.95;100.00;58458.38;5065763;28;20059;-87
2023/09/03 03:36:03;;;;;;;69.50;35.08;;;;;;;-147.95;100.00;58458.38;5076708;28;20127;-88
2023/09/03 03:38:29;;;;;;;62.50;31.33;;;;;;;-147.95;100.00;58458.38;5092903;28;20069;-88
2023/09/03 03:41:09;;;;;;;65.80;33.13;;;;;;;-147.95;100.00;58458.38;5071914;28;20039;-88
2023/09/03 03:43:40;;;;;;;66.82;33.53;;;;;;;-147.95;100.00;58458.38;5080441;28;20474;-88
2023/09/03 03:46:06;;;;;;;60.67;34.33;;;;;;;-147.95;100.00;58458.38;5088577;28;20024;-88
2023/09/03 03:48:34;;;;;;;64.75;33.90;;;;;;;-147.95;100.00;58458.38;5087064;28;20086;-88
2023/09/03 03:51:00;;;;;;;64.75;32.80;;;;;;;-147.95;100.00;58458.38;5093301;28;20089;-88
2023/09/03 03:53:25;;;;;;;64.57;33.63;;;;;;;-147.95;100.00;58458.38;5086731;28;20491;-88
2023/09/03 03:56:01;;;;;;;68.50;35.47;;;;;;;-147.95;100.00;58458.38;5091270;28;20484;-88
2023/09/03 03:58:29;;;;;;;63.45;32.88;;;;;;;-147.95;100.00;58458.38;5094234;28;20020;-88
2023/09/03 04:00:54;;;;;;;62.42;33.20;;;;;;;-147.95;100.00;58458.38;5090246;28;20031;-88
2023/09/03 04:03:21;;;;;;;70.13;33.15;;;;;;;-147.95;100.00;58458.38;5085771;28;20453;-88
2023/09/03 04:05:55;;;;;;;63.00;33.83;;;;;;;-147.95;100.00;58458.38;5092497;28;20071;-87
2023/09/03 04:08:21;;;;;;;64.10;31.73;;;;;;;-147.95;100.00;58458.38;5053989;28;20086;-88
2023/09/03 04:10:46;;;;;;;70.45;33.70;;;;;;;-147.95;100.00;58458.38;5058656;28;20047;-88
2023/09/03 04:13:11;;;;;;;58.72;32.63;;;;;;;-147.95;100.00;58458.38;5073308;28;20117;-87
2023/09/03 04:15:37;;;;;;;54.83;31.50;;;;;;;-147.95;100.00;58458.38;5072637;28;20376;-88
2023/09/03 04:18:03;;;;;;;60.55;32.63;;;;;;;-147.95;100.00;58458.38;5089692;28;20543;-88
2023/09/03 04:20:28;;;;;;;69.78;32.05;;;;;;;-147.95;100.00;58458.38;5069009;28;20114;-87
2023/09/03 04:22:55;;;;;;;63.95;32.00;;;;;;;-147.95;100.00;58458.38;5075087;28;20024;-88
2023/09/03 04:25:21;;;;;;;64.45;34.08;;;;;;;-147.95;100.00;58458.38;5056468;28;20503;-87
2023/09/03 04:27:46;;;;;;;63.53;32.72;;;;;;;-147.95;100.00;58458.38;5074436;28;20030;-86
2023/09/03 04:30:12;;;;;;;68.97;33.65;;;;;;;-147.95;100.00;58458.38;5067770;28;20035;-87
2023/09/03 04:32:37;;;;;;;61.83;31.45;;;;;;;-147.95;100.00;58458.38;5090904;28;20474;-88
2023/09/03 04:35:03;;;;;;;62.72;31.67;;;;;;;-147.95;100.00;58458.38;5060208;28;20055;-88
2023/09/03 04:37:29;;;;;;;60.08;32.25;;;;;;;-147.95;100.00;58458.38;5056480;28;20172;-89
2023/09/03 04:39:54;;;;;;;65.22;32.75;;;;;;;-147.95;100.00;58458.38;5085149;28;20135;-87
2023/09/03 04:42:20;;;;;;;63.63;33.47;;;;;;;-147.95;100.00;58458.38;5052424;28;20385;-87
2023/09/03 04:44:45;;;;;;;57.78;31.27;;;;;;;-147.95;100.00;58458.38;5093515;28;20024;-88
2023/09/03 04:47:11;;;;;;;57.92;32.75;;;;;;;-147.95;100.00;58458.38;5057837;28;20512;-88
2023/09/03 04:49:36;;;;;;;60.60;32.00;;;;;;;-147.95;100.00;58458.38;5071471;28;20031;-87
2023/09/03 04:52:02;;;;;;;62.95;31.60;;;;;;;-147.95;100.00;58458.38;5061122;28;20039;-88
2023/09/03 04:54:27;;;;;;;66.18;32.78;;;;;;;-147.95;100.00;58458.38;5057733;28;20501;-87
2023/09/03 04:56:53;;;;;;;63.40;32.97;;;;;;;-147.95;100.00;58458.38;5078307;28;20032;-87
2023/09/03 04:59:18;;;;;;;63.50;31.70;;;;;;;-147.95;100.00;58458.38;5074530;28;20055;-88
2023/09/03 05:01:44;;;;;;;60.25;32.60;;;;;;;-147.95;100.00;58458.38;5074766;28;20039;-88
2023/09/03 05:04:09;;;;;;;62.55;34.42;;;;;;;-147.95;100.00;58458.38;5056850;28;20025;-88
2023/09/03 05:06:36;;;;;;;69.97;36.20;;;;;;;-147.95;100.00;58458.38;5054833;28;20043;-87
2023/09/03 05:09:01;;;;;;;70.30;35.00;;;;;;;-147.95;100.00;58458.38;5069390;28;20036;-87
2023/09/03 05:11:28;;;;;;;69.15;34.78;;;;;;;-147.95;100.00;58458.38;5052112;28;20384;-87
2023/09/03 05:13:53;;;;;;;73.68;36.35;;;;;;;-147.95;100.00;58458.38;5087069;28;20458;-85
2023/09/03 05:16:19;;;;;;;63.20;34.75;;;;;;;-147.95;100.00;58458.38;5085400;28;20051;-85
2023/09/03 05:18:44;;;;;;;68.22;34.38;;;;;;;-147.95;100.00;58458.38;5084041;28;20077;-85
2023/09/03 05:21:10;;;;;;;68.40;34.30;;;;;;;-147.95;100.00;58458.38;5084220;28;20404;-86
2023/09/03 05:23:36;;;;;;;69.57;34.92;;;;;;;-147.95;100.00;58458.38;5085088;28;20031;-85
2023/09/03 05:26:02;;;;;;;62.38;34.03;;;;;;;-147.95;100.00;58458.38;5088762;28;20024;-85
2023/09/03 05:28:28;;;;;;;71.10;34.88;;;;;;;-147.95;100.00;58458.38;5086056;28;20062;-86
2023/09/03 05:30:53;;;;;;;77.30;34.55;;;;;;;-147.95;100.00;58458.38;5081218;28;20035;-88
2023/09/03 05:33:19;;;;;;;72.43;36.05;;;;;;;-147.95;100.00;58458.38;5065662;28;20031;-85
2023/09/03 05:35:45;;;;;;;73.35;35.60;;;;;;;-147.95;100.00;58458.38;5085083;28;20032;-87
2023/09/03 05:38:10;;;;;;;63.05;34.00;;;;;;;-147.95;100.00;58458.38;5070033;28;20390;-86
2023/09/03 05:40:36;;;;;;;69.40;35.08;;;;;;;-147.95;100.00;58458.38;5085736;28;20097;-85
2023/09/03 05:43:01;;;;;;;67.20;35.88;;;;;;;-147.95;100.00;58458.38;5081624;28;20424;-83
2023/09/03 05:45:27;;;;;;;64.68;34.22;;;;;;;-147.95;100.00;58458.38;5079233;28;20173;-85
2023/09/03 05:47:53;;;;;;;67.40;36.53;;;;;;;-147.95;100.00;58458.38;5083005;28;20027;-85
2023/09/03 05:50:19;;;;;;;70.70;35.47;;;;;;;-147.95;100.00;58458.38;5068350;28;20033;-85
2023/09/03 05:52:44;;;;;;;67.60;36.55;;;;;;;-147.95;100.00;58458.38;5086261;28;20051;-85
2023/09/03 05:55:10;;;;;;;69.82;35.90;;;;;;;-147.95;100.00;58458.38;5065144;28;20402;-85
2023/09/03 05:57:37;;;;;;;66.18;34.38;;;;;;;-147.95;100.00;58458.38;5071392;28;20470;-84
2023/09/03 06:00:03;;;;;;;62.30;34.30;;;;;;;-147.95;100.00;58458.38;5085851;28;20406;-84
2023/09/03 06:02:28;;;;;;;63.33;34.60;;;;;;;-147.95;100.00;58458.38;5085956;28;20031;-85
2023/09/03 06:04:54;;;;;;;69.43;35.95;;;;;;;-147.95;100.00;58458.38;5088302;28;20035;-85
2023/09/03 06:07:19;;;;;;;65.03;35.40;;;;;;;-147.95;100.00;58458.38;5091550;28;20024;-85
2023/09/03 06:09:46;;;;;;;59.80;33.47;;;;;;;-147.95;100.00;58458.38;5084976;28;20040;-84
2023/09/03 06:12:13;;;;;;;69.60;34.22;;;;;;;-147.95;100.00;58458.38;5072678;28;20512;-84
2023/09/03 06:14:38;;;;;;;63.95;33.75;;;;;;;-147.95;100.00;58458.38;5085858;28;20115;-84
2023/09/03 06:17:04;;;;;;;62.83;35.42;;;;;;;-147.95;100.00;58458.38;5090953;28;20053;-84
2023/09/03 06:19:30;;;;;;;59.47;32.97;;;;;;;-147.95;100.00;58458.38;5086947;28;20097;-85
2023/09/03 06:21:56;;;;;;;60.60;33.50;;;;;;;-147.95;100.00;58458.38;5089352;28;20545;-86
2023/09/03 06:24:22;;;;;;;58.13;33.17;;;;;;;-147.95;100.00;58458.38;5088898;28;20058;-87
2023/09/03 06:26:48;;;;;;;62.83;34.28;;;;;;;-147.95;100.00;58458.38;5087383;28;20027;-83
2023/09/03 06:29:13;;;;;;;63.45;35.38;;;;;;;-147.95;100.00;58458.38;5082255;28;20032;-84
2023/09/03 06:31:38;;;;;;;58.50;32.97;;;;;;;-147.95;100.00;58458.38;5087143;28;20097;-83
2023/09/03 06:34:04;;;;;;;61.15;34.47;;;;;;;-147.95;100.00;58458.38;5089334;28;20038;-83
2023/09/03 06:36:29;;;;;;;62.95;33.30;;;;;;;-147.95;100.00;58458.38;5074005;28;20055;-84
2023/09/03 06:38:55;;;;;;;61.80;33.85;;;;;;;-147.95;100.00;58458.38;5066679;28;20127;-83
2023/09/03 06:41:20;;;;;;;56.10;30.65;;;;;;;-147.95;100.00;58458.38;5069669;28;20028;-82
2023/09/03 06:43:46;;;;;;;56.58;32.22;;;;;;;-147.95;100.00;58458.38;5062875;28;20044;-84
2023/09/03 06:46:12;;;;;;;58.80;33.50;;;;;;;-147.95;100.00;58458.38;5090263;28;20130;-84
2023/09/03 06:48:37;;;;;;;57.28;32.42;;;;;;;-147.95;100.00;58458.38;5088221;28;20089;-85
2023/09/03 06:51:03;;;;;;;55.17;32.72;;;;;;;-147.95;100.00;58458.38;5087882;28;20426;-84
2023/09/03 06:53:29;;;;;;;54.03;31.33;;;;;;;-147.95;100.00;58458.38;5089287;28;20077;-85
2023/09/03 06:55:56;;;;;;;56.70;33.13;;;;;;;-147.95;100.00;58458.38;5082825;28;20028;-84
2023/09/03 06:58:22;;;;;;;55.65;33.53;;;;;;;-147.95;100.00;58458.38;5078226;28;20029;-84
2023/09/03 07:00:47;;;;;;;78.90;33.90;;;;;;;-147.95;100.00;58458.38;5065760;28;20044;-83
2023/09/03 07:03:13;;;;;;;54.15;33.63;;;;;;;-147.95;100.00;58458.38;5071602;28;20410;-82
2023/09/03 07:05:39;;;;;;;65.40;33.00;;;;;;;-147.95;100.00;58458.38;5082981;28;20604;-82
2023/09/03 07:08:07;;;;;;;53.88;33.13;;;;;;;-147.95;100.00;58458.38;5083064;28;20077;-84
2023/09/03 07:10:33;;;;;;;55.85;31.83;;;;;;;-147.95;100.00;58458.38;5049829;28;20058;-83
2023/09/03 07:12:59;;;;;;;52.30;31.40;;;;;;;-147.95;100.00;58458.38;5087032;28;20115;-82
2023/09/03 07:15:24;;;;;;;52.83;32.35;;;;;;;-147.95;100.00;58458.38;5088940;28;20024;-83
2023/09/03 07:17:50;;;;;;;53.72;30.73;;;;;;;-147.95;100.00;58458.38;5083142;28;20039;-82
2023/09/03 07:20:15;;;;;;;57.40;30.98;;;;;;;-147.95;100.00;58458.38;5088302;28;20024;-82
2023/09/03 07:22:41;;;;;;;52.08;31.88;;;;;;;-147.95;100.00;58458.38;5082283;28;20059;-82
2023/09/03 07:25:07;;;;;;;46.85;30.90;;;;;;;-147.95;100.00;58458.38;5089019;28;20097;-82
2023/09/03 07:27:33;;;;;;;54.25;31.40;;;;;;;-147.95;100.00;58458.38;5079548;28;20402;-82
2023/09/03 07:29:58;;;;;;;47.05;28.80;;;;;;;-147.95;100.00;58458.38;5088058;28;20039;-82
2023/09/03 07:32:23;;;;;;;53.03;30.15;;;;;;;-147.95;100.00;58458.38;5084045;28;20040;-82
2023/09/03 07:34:53;;;;;;;53.88;32.42;;;;;;;-147.95;100.00;58458.38;5080192;28;20089;-82
2023/09/03 07:37:19;;;;;;;47.70;30.08;;;;;;;-147.95;100.00;58458.38;5087451;28;20036;-82
2023/09/03 07:39:45;;;;;;;51.25;28.17;;;;;;;-147.95;100.00;58458.38;5092541;28;20077;-82
2023/09/03 07:42:11;;;;;;;57.45;29.85;;;;;;;-147.95;100.00;58458.38;5085126;28;20032;-82
2023/09/03 07:44:36;;;;;;;49.00;29.77;;;;;;;-147.95;100.00;58458.38;5073026;28;20032;-81
2023/09/03 07:47:01;;;;;;;53.08;30.42;;;;;;;-147.95;100.00;58458.38;5070146;28;20081;-79
2023/09/03 07:49:28;;;;;;;61.13;29.45;;;;;;;-147.95;100.00;58458.38;5070840;28;20024;-80
2023/09/03 07:51:54;;;;;;;51.33;29.05;;;;;;;-147.95;100.00;58458.38;5081969;28;20035;-82
2023/09/03 07:54:19;;;;;;;47.53;28.35;;;;;;;-147.95;100.00;58458.38;5083640;28;20470;-82
2023/09/03 07:56:44;;;;;;;45.85;28.75;;;;;;;-147.95;100.00;58458.38;5081290;28;20036;-82
2023/09/03 07:59:10;;;;;;;56.75;32.15;;;;;;;-147.95;100.00;58458.38;5072164;28;20127;-82
2023/09/03 08:01:35;;;;;;;51.65;32.97;;;;;;;-147.95;100.00;58458.38;5092849;28;20080;-82
2023/09/03 08:04:01;;;;;;;58.25;33.35;;;;;;;-147.95;100.00;58458.38;5084512;28;20064;-82
2023/09/03 08:06:26;;;;;;;52.53;31.23;;;;;;;-147.95;100.00;58458.38;5084704;28;20077;-79
2023/09/03 08:08:54;;;;;;;51.03;32.15;;;;;;;-147.95;100.00;58458.38;5086056;28;21266;-81
2023/09/03 08:11:23;;;;;;;53.95;33.78;;;;;;;-147.95;100.00;58458.38;5088701;28;20035;-85
2023/09/03 08:13:51;;;;;;;56.95;36.30;;;;;;;-147.95;100.00;58458.38;5082461;28;20024;-85
2023/09/03 08:16:17;;;;;;;60.40;38.35;;;;;;;-147.95;100.00;58458.38;5084381;28;20034;-86
2023/09/03 08:18:42;;;;;;;52.58;34.25;;;;;;;-147.95;100.00;58458.38;5080251;28;20028;-85
2023/09/03 08:21:07;;;;;;;53.53;32.25;;;;;;;-147.95;100.00;58458.38;5081840;28;20097;-85
2023/09/03 08:23:33;;;;;;;53.15;32.88;;;;;;;-147.95;100.00;58458.38;5070818;28;20402;-85
2023/09/03 08:25:58;;;;;;;57.78;36.00;;;;;;;-147.95;100.00;58458.38;5084672;28;20489;-85
2023/09/03 08:28:24;;;;;;;63.67;35.90;;;;;;;-147.95;100.00;58458.38;5081471;28;20451;-85
2023/09/03 08:30:49;;;;;;;59.15;36.35;;;;;;;-147.95;100.00;58458.38;5068207;28;20486;-85
2023/09/03 08:33:14;;;;;;;63.42;37.97;;;;;;;-147.95;100.00;58458.38;5081227;28;20035;-85
2023/09/03 08:35:40;;;;;;;59.20;35.05;;;;;;;-147.95;100.00;58458.38;5070982;28;20028;-85
2023/09/03 08:38:07;;;;;;;51.55;33.05;;;;;;;-147.95;100.00;58458.38;5082538;28;20770;-85
2023/09/03 08:40:33;;;;;;;48.40;30.33;;;;;;;-147.95;100.00;58458.38;5084072;28;20044;-85
2023/09/03 08:42:59;;;;;;;48.50;30.08;;;;;;;-147.95;100.00;58458.38;5081190;28;20074;-85
2023/09/03 08:45:31;;;;;;;44.42;28.67;;;;;;;-147.95;100.00;58458.38;5080757;28;20097;-85
2023/09/03 08:47:56;;;;;;;44.83;29.67;;;;;;;-147.95;100.00;58458.38;5084762;28;20020;-85
2023/09/03 08:50:26;;;;;;;50.83;32.15;;;;;;;-147.95;100.00;58458.38;5082955;28;20032;-85
2023/09/03 08:52:52;;;;;;;45.58;27.40;;;;;;;-147.95;100.00;58458.38;5068435;28;20082;-85
2023/09/03 08:55:18;;;;;;;49.45;31.23;;;;;;;-147.95;100.00;58458.38;5082332;28;20023;-85
2023/09/03 08:57:44;;;;;;;55.03;31.27;;;;;;;-147.95;100.00;58458.38;5081535;28;20042;-86
2023/09/03 09:00:12;;;;;;;58.00;34.83;;;;;;;-147.95;100.00;58458.38;5067603;28;20130;-84
2023/09/03 09:02:38;;;;;;;52.50;32.20;;;;;;;-147.95;100.00;58458.38;5087728;28;20024;-85
2023/09/03 09:05:06;;;;;;;48.88;31.20;;;;;;;-147.95;100.00;58458.38;5083237;28;20074;-85
2023/09/03 09:07:32;;;;;;;42.35;27.05;;;;;;;-147.95;100.00;58458.38;5084705;28;20031;-85
2023/09/03 09:10:02;;;;;;;40.60;26.45;;;;;;;-147.95;100.00;58458.38;5088346;28;20052;-85
2023/09/03 09:12:32;;;;;;;40.15;26.92;;;;;;;-147.95;100.00;58458.38;5085855;28;20044;-86
2023/09/03 09:15:01;;;;;;;46.13;29.52;;;;;;;-147.95;100.00;58458.38;5086690;28;20030;-86
2023/09/03 09:17:30;;;;;;;42.88;26.95;;;;;;;-147.95;100.00;58458.38;5074696;28;20029;-87
2023/09/03 09:19:59;;;;;;;43.53;26.52;;;;;;;-147.95;100.00;58458.38;5063537;28;20028;-87
2023/09/03 09:22:25;;;;;;;36.17;22.38;;;;;;;-147.95;100.00;58458.38;5052511;28;20030;-87
2023/09/03 09:24:51;;;;;;;39.25;25.83;;;;;;;-147.95;100.00;58458.38;5088704;28;20032;-88
2023/09/03 09:27:18;;;;;;;36.67;22.27;;;;;;;-147.95;100.00;58458.38;5083766;28;20020;-88
2023/09/03 09:29:44;;;;;;;38.30;24.58;;;;;;;-147.95;100.00;58458.38;5088857;28;20059;-87
2023/09/03 09:32:23;;;;;;;38.47;22.38;;;;;;;-147.95;100.00;58458.38;5080034;28;20036;-87
2023/09/03 09:34:49;;;;;;;37.35;25.05;;;;;;;-147.95;100.00;58458.38;5089926;28;20032;-88
2023/09/03 09:37:15;;;;;;;35.05;22.20;;;;;;;-147.95;100.00;58458.38;5084421;28;20027;-87
2023/09/03 09:39:45;;;;;;;28.08;18.13;;;;;;;-147.95;100.00;58458.38;5084916;28;20025;-88
2023/09/03 09:42:18;;;;;;;27.85;18.00;;;;;;;-147.95;100.00;58458.38;5084543;28;20028;-87
2023/09/03 09:44:52;;;;;;;30.48;19.33;;;;;;;-147.95;100.00;58458.38;5063450;28;20028;-87
2023/09/03 09:47:21;;;;;;;27.50;14.10;;;;;;;-147.95;100.00;58458.38;5087881;28;20459;-86
2023/09/03 09:49:48;;;;;;;24.25;14.48;;;;;;;-147.95;100.00;58458.38;5087652;28;20631;-86
2023/09/03 09:52:14;;;;;;;20.05;11.38;;;;;;;-147.95;100.00;58458.38;5081949;28;20465;-85
2023/09/03 09:54:41;;;;;;;18.75;10.25;;;;;;;-147.95;100.00;58458.38;5065857;28;20132;-85
2023/09/03 09:57:15;;;;;;;19.58;11.18;;;;;;;-147.95;100.00;58458.38;5081147;28;20107;-86
2023/09/03 09:59:44;;;;;;;16.35;10.25;;;;;;;-147.95;100.00;58458.38;5084365;28;20031;-85
2023/09/03 10:02:19;;;;;;;19.80;12.30;;;;;;;-147.95;100.00;58458.38;5092099;28;20039;-85
2023/09/03 10:04:46;;;;;;;17.83;12.48;;;;;;;-147.95;100.00;58458.38;5090367;28;20024;-86
2023/09/03 10:07:14;;;;;;;21.92;12.35;;;;;;;-147.95;100.00;58458.38;5091207;28;20048;-85
2023/09/03 10:09:41;;;;;;;16.85;11.73;;;;;;;-147.95;100.00;58458.38;5066885;28;20111;-85
2023/09/03 10:12:07;;;;;;;20.38;12.23;;;;;;;-147.95;100.00;58458.38;5084330;28;20132;-86
2023/09/03 10:14:33;;;;;;;19.20;11.65;;;;;;;-147.95;100.00;58458.38;5083693;28;20040;-87
2023/09/03 10:17:04;;;;;;;21.38;11.65;;;;;;;-147.95;100.00;58458.38;5093236;28;20028;-85
2023/09/03 10:19:41;;;;;;;21.95;12.55;;;;;;;-147.95;100.00;58458.38;5090730;28;20035;-86
2023/09/03 10:22:12;;;;;;;20.48;12.65;;;;;;;-147.95;100.00;58458.38;5089140;28;20122;-85
2023/09/03 10:24:38;;;;;;;18.05;10.55;;;;;;;-147.95;100.00;58458.38;5082874;28;20028;-84
2023/09/03 10:27:06;;;;;;;16.70;11.43;;;;;;;-147.95;100.00;58458.38;5073535;28;20399;-88
2023/09/03 10:29:34;;;;;;;26.15;12.85;;;;;;;-147.95;100.00;58458.38;5091368;28;20075;-83
2023/09/03 10:32:01;;;;;;;23.00;14.00;;;;;;;-147.95;100.00;58458.38;5084657;28;20036;-80
2023/09/03 10:34:29;;;;;;;27.67;15.75;;;;;;;-147.95;100.00;58458.38;5088865;28;20016;-80
2023/09/03 10:37:09;;;;;;;23.25;14.52;;;;;;;-147.95;100.00;58458.38;5085682;28;20036;-80
2023/09/03 10:39:37;;;;;;;19.92;13.27;;;;;;;-147.95;100.00;58458.38;5069365;28;20119;-80
2023/09/03 10:42:15;;;;;;;26.70;14.55;;;;;;;-147.95;100.00;58458.38;5088148;28;20021;-80
2023/09/03 10:44:49;;;;;;;28.50;14.68;;;;;;;-147.95;100.00;58458.38;5085706;28;20039;-80
2023/09/03 10:47:17;;;;;;;22.77;14.93;;;;;;;-147.95;100.00;58458.38;5088145;28;20036;-80
2023/09/03 10:49:47;;;;;;;23.60;14.43;;;;;;;-147.95;100.00;58458.38;5092083;28;20031;-80
2023/09/03 10:52:40;;;;;;;30.63;15.77;;;;;;;-147.95;100.00;58458.38;5087975;28;20433;-80
2023/09/03 10:55:14;;;;;;;25.65;15.70;;;;;;;-147.95;100.00;58458.38;5082942;28;20038;-80